sensor_id;sensor_type;location;lat;lon;timestamp;P1;durP1;ratioP1;P2;durP2;ratioP2
73909;SDS011;62245;48.070;7.874;2024-02-15T00:00:00;6.03;;;2.05;;
73909;SDS011;62245;48.070;7.874;2024-02-15T00:02:26;5.72;;;2.03;;
73909;SDS011;62245;48.070;7.874;2024-02-15T00:04:51;6.30;;;2.23;;
73909;SDS011;62245;48.070;7.874;2024-02-15T00:07:17;7.20;;;2.20;;
73909;SDS011;62245;48.070;7.874;2024-02-15T00:09:42;4.93;;;2.25;;
73909;SDS011;62245;48.070;7.874;2024-02-15T00:12:07;5.20;;;2.40;;
73909;SDS011;62245;48.070;7.874;2024-02-15T00:14:33;6.55;;;2.67;;
73909;SDS011;62245;48.070;7.874;2024-02-15T00:16:58;7.68;;;2.65;;
73909;SDS011;62245;48.070;7.874;2024-02-15T00:19:23;6.67;;;2.40;;
73909;SDS011;62245;48.070;7.874;2024-02-15T00:21:49;5.57;;;2.10;;
73909;SDS011;62245;48.070;7.874;2024-02-15T00:24:14;5.78;;;2.35;;
73909;SDS011;62245;48.070;7.874;2024-02-15T00:26:40;8.37;;;2.43;;
73909;SDS011;62245;48.070;7.874;2024-02-15T00:29:07;6.85;;;2.08;;
73909;SDS011;62245;48.070;7.874;2024-02-15T00:31:33;9.50;;;2.65;;
73909;SDS011;62245;48.070;7.874;2024-02-15T00:33:58;5.70;;;2.45;;
73909;SDS011;62245;48.070;7.874;2024-02-15T00:36:24;5.50;;;2.33;;
73909;SDS011;62245;48.070;7.874;2024-02-15T00:38:49;5.75;;;2.33;;
73909;SDS011;62245;48.070;7.874;2024-02-15T00:41:14;6.57;;;2.20;;
73909;SDS011;62245;48.070;7.874;2024-02-15T00:43:40;5.57;;;2.10;;
73909;SDS011;62245;48.070;7.874;2024-02-15T00:46:05;7.47;;;2.00;;
73909;SDS011;62245;48.070;7.874;2024-02-15T00:48:30;6.77;;;2.20;;
73909;SDS011;62245;48.070;7.874;2024-02-15T00:50:56;5.30;;;2.13;;
73909;SDS011;62245;48.070;7.874;2024-02-15T00:53:21;6.90;;;2.80;;
73909;SDS011;62245;48.070;7.874;2024-02-15T00:55:47;5.20;;;1.63;;
73909;SDS011;62245;48.070;7.874;2024-02-15T00:58:12;5.23;;;2.00;;
73909;SDS011;62245;48.070;7.874;2024-02-15T04:01:39;3.30;;;1.02;;
73909;SDS011;62245;48.070;7.874;2024-02-15T04:04:04;2.92;;;0.93;;
73909;SDS011;62245;48.070;7.874;2024-02-15T04:06:30;3.05;;;0.85;;
73909;SDS011;62245;48.070;7.874;2024-02-15T04:08:58;6.65;;;1.45;;
73909;SDS011;62245;48.070;7.874;2024-02-15T04:11:23;4.50;;;1.40;;
73909;SDS011;62245;48.070;7.874;2024-02-15T04:13:48;3.57;;;1.20;;
73909;SDS011;62245;48.070;7.874;2024-02-15T04:16:14;3.63;;;1.00;;
73909;SDS011;62245;48.070;7.874;2024-02-15T04:18:39;3.37;;;1.00;;
73909;SDS011;62245;48.070;7.874;2024-02-15T04:21:05;3.13;;;1.20;;
73909;SDS011;62245;48.070;7.874;2024-02-15T04:23:32;3.88;;;0.90;;
73909;SDS011;62245;48.070;7.874;2024-02-15T04:25:57;3.67;;;1.00;;
73909;SDS011;62245;48.070;7.874;2024-02-15T04:28:24;3.30;;;0.82;;
73909;SDS011;62245;48.070;7.874;2024-02-15T04:30:50;4.00;;;1.13;;
73909;SDS011;62245;48.070;7.874;2024-02-15T04:33:15;4.18;;;1.23;;
73909;SDS011;62245;48.070;7.874;2024-02-15T04:35:41;4.03;;;1.30;;
73909;SDS011;62245;48.070;7.874;2024-02-15T04:38:07;6.97;;;1.38;;
73909;SDS011;62245;48.070;7.874;2024-02-15T04:40:33;5.53;;;1.83;;
73909;SDS011;62245;48.070;7.874;2024-02-15T04:42:59;5.50;;;1.42;;
73909;SDS011;62245;48.070;7.874;2024-02-15T04:45:24;5.93;;;1.60;;
73909;SDS011;62245;48.070;7.874;2024-02-15T04:47:51;2.33;;;0.90;;
73909;SDS011;62245;48.070;7.874;2024-02-15T04:50:17;3.90;;;1.25;;
73909;SDS011;62245;48.070;7.874;2024-02-15T04:52:43;6.78;;;2.28;;
73909;SDS011;62245;48.070;7.874;2024-02-15T04:55:10;7.35;;;2.90;;
73909;SDS011;62245;48.070;7.874;2024-02-15T04:57:35;5.95;;;2.60;;
73909;SDS011;62245;48.070;7.874;2024-02-15T05:00:02;5.72;;;2.35;;
73909;SDS011;62245;48.070;7.874;2024-02-15T05:02:34;6.38;;;2.55;;
73909;SDS011;62245;48.070;7.874;2024-02-15T05:05:01;6.75;;;2.85;;
73909;SDS011;62245;48.070;7.874;2024-02-15T05:07:27;6.83;;;2.27;;
73909;SDS011;62245;48.070;7.874;2024-02-15T05:09:52;6.10;;;1.77;;
73909;SDS011;62245;48.070;7.874;2024-02-15T05:12:24;4.63;;;1.77;;
73909;SDS011;62245;48.070;7.874;2024-02-15T05:14:50;4.88;;;1.65;;
73909;SDS011;62245;48.070;7.874;2024-02-15T05:17:16;5.05;;;1.60;;
73909;SDS011;62245;48.070;7.874;2024-02-15T05:19:41;5.35;;;1.48;;
73909;SDS011;62245;48.070;7.874;2024-02-15T05:22:07;5.83;;;1.80;;
73909;SDS011;62245;48.070;7.874;2024-02-15T05:24:32;6.07;;;1.73;;
73909;SDS011;62245;48.070;7.874;2024-02-15T05:26:58;5.40;;;1.55;;
73909;SDS011;62245;48.070;7.874;2024-02-15T05:29:23;4.03;;;1.30;;
73909;SDS011;62245;48.070;7.874;2024-02-15T05:31:48;4.07;;;1.20;;
73909;SDS011;62245;48.070;7.874;2024-02-15T05:34:16;4.47;;;1.02;;
73909;SDS011;62245;48.070;7.874;2024-02-15T05:36:42;4.22;;;1.17;;
73909;SDS011;62245;48.070;7.874;2024-02-15T05:39:07;3.33;;;1.00;;
73909;SDS011;62245;48.070;7.874;2024-02-15T05:41:33;4.25;;;1.25;;
73909;SDS011;62245;48.070;7.874;2024-02-15T05:43:59;3.20;;;1.20;;
73909;SDS011;62245;48.070;7.874;2024-02-15T05:46:24;2.92;;;1.35;;
73909;SDS011;62245;48.070;7.874;2024-02-15T05:48:50;3.97;;;1.27;;
73909;SDS011;62245;48.070;7.874;2024-02-15T05:51:18;5.95;;;1.40;;
73909;SDS011;62245;48.070;7.874;2024-02-15T05:53:44;5.20;;;1.25;;
73909;SDS011;62245;48.070;7.874;2024-02-15T05:56:10;4.70;;;1.52;;
73909;SDS011;62245;48.070;7.874;2024-02-15T05:58:35;3.85;;;1.50;;
73909;SDS011;62245;48.070;7.874;2024-02-15T06:01:02;3.92;;;1.35;;
73909;SDS011;62245;48.070;7.874;2024-02-15T06:03:30;5.28;;;1.30;;
73909;SDS011;62245;48.070;7.874;2024-02-15T06:05:58;6.72;;;1.52;;
73909;SDS011;62245;48.070;7.874;2024-02-15T06:08:24;4.68;;;1.20;;
73909;SDS011;62245;48.070;7.874;2024-02-15T06:10:50;6.13;;;1.20;;
73909;SDS011;62245;48.070;7.874;2024-02-15T06:13:17;6.43;;;1.48;;
73909;SDS011;62245;48.070;7.874;2024-02-15T06:15:42;4.40;;;1.30;;
73909;SDS011;62245;48.070;7.874;2024-02-15T06:18:08;5.70;;;1.20;;
73909;SDS011;62245;48.070;7.874;2024-02-15T06:20:35;2.28;;;0.80;;
73909;SDS011;62245;48.070;7.874;2024-02-15T06:23:01;4.38;;;1.20;;
73909;SDS011;62245;48.070;7.874;2024-02-15T06:25:30;3.97;;;1.10;;
73909;SDS011;62245;48.070;7.874;2024-02-15T06:27:56;6.05;;;1.33;;
73909;SDS011;62245;48.070;7.874;2024-02-15T06:30:26;3.83;;;1.10;;
73909;SDS011;62245;48.070;7.874;2024-02-15T06:33:11;3.15;;;1.02;;
73909;SDS011;62245;48.070;7.874;2024-02-15T06:35:55;3.58;;;0.82;;
73909;SDS011;62245;48.070;7.874;2024-02-15T06:38:38;4.07;;;1.20;;
73909;SDS011;62245;48.070;7.874;2024-02-15T06:41:22;3.88;;;1.08;;
73909;SDS011;62245;48.070;7.874;2024-02-15T06:43:48;4.65;;;1.40;;
73909;SDS011;62245;48.070;7.874;2024-02-15T06:46:14;3.53;;;1.05;;
73909;SDS011;62245;48.070;7.874;2024-02-15T06:48:41;5.97;;;1.50;;
73909;SDS011;62245;48.070;7.874;2024-02-15T06:51:11;3.38;;;1.13;;
73909;SDS011;62245;48.070;7.874;2024-02-15T06:53:39;4.07;;;1.30;;
73909;SDS011;62245;48.070;7.874;2024-02-15T06:56:05;3.75;;;1.40;;
73909;SDS011;62245;48.070;7.874;2024-02-15T06:58:30;5.82;;;1.40;;
73909;SDS011;62245;48.070;7.874;2024-02-15T07:00:56;5.13;;;1.30;;
73909;SDS011;62245;48.070;7.874;2024-02-15T07:03:21;7.65;;;1.92;;
73909;SDS011;62245;48.070;7.874;2024-02-15T07:05:47;6.20;;;1.58;;
73909;SDS011;62245;48.070;7.874;2024-02-15T07:08:13;5.75;;;1.67;;
73909;SDS011;62245;48.070;7.874;2024-02-15T07:10:39;5.43;;;1.75;;
73909;SDS011;62245;48.070;7.874;2024-02-15T07:13:04;4.50;;;1.60;;
73909;SDS011;62245;48.070;7.874;2024-02-15T07:15:33;6.22;;;1.50;;
73909;SDS011;62245;48.070;7.874;2024-02-15T07:20:29;4.47;;;1.40;;
73909;SDS011;62245;48.070;7.874;2024-02-15T07:22:55;4.63;;;1.50;;
73909;SDS011;62245;48.070;7.874;2024-02-15T07:25:21;6.05;;;1.73;;
73909;SDS011;62245;48.070;7.874;2024-02-15T07:27:46;5.10;;;1.50;;
73909;SDS011;62245;48.070;7.874;2024-02-15T07:30:12;4.83;;;1.40;;
73909;SDS011;62245;48.070;7.874;2024-02-15T07:32:38;3.78;;;1.20;;
73909;SDS011;62245;48.070;7.874;2024-02-15T07:35:03;4.03;;;1.30;;
73909;SDS011;62245;48.070;7.874;2024-02-15T07:37:32;4.57;;;1.20;;
73909;SDS011;62245;48.070;7.874;2024-02-15T07:39:58;1.95;;;0.90;;
73909;SDS011;62245;48.070;7.874;2024-02-15T07:42:24;5.03;;;1.33;;
73909;SDS011;62245;48.070;7.874;2024-02-15T07:44:50;3.53;;;1.10;;
73909;SDS011;62245;48.070;7.874;2024-02-15T07:47:17;4.03;;;1.20;;
73909;SDS011;62245;48.070;7.874;2024-02-15T07:49:45;3.88;;;1.50;;
73909;SDS011;62245;48.070;7.874;2024-02-15T07:52:11;4.20;;;1.80;;
73909;SDS011;62245;48.070;7.874;2024-02-15T07:54:36;4.43;;;1.50;;
73909;SDS011;62245;48.070;7.874;2024-02-15T07:57:01;4.53;;;1.30;;
73909;SDS011;62245;48.070;7.874;2024-02-15T07:59:27;3.35;;;1.20;;
73909;SDS011;62245;48.070;7.874;2024-02-15T08:01:53;4.45;;;1.20;;
73909;SDS011;62245;48.070;7.874;2024-02-15T08:04:19;4.40;;;1.33;;
73909;SDS011;62245;48.070;7.874;2024-02-15T08:06:45;5.30;;;1.50;;
73909;SDS011;62245;48.070;7.874;2024-02-15T08:09:13;4.55;;;1.33;;
73909;SDS011;62245;48.070;7.874;2024-02-15T08:11:41;3.25;;;1.13;;
73909;SDS011;62245;48.070;7.874;2024-02-15T08:14:06;6.10;;;1.60;;
73909;SDS011;62245;48.070;7.874;2024-02-15T08:16:35;7.22;;;2.30;;
73909;SDS011;62245;48.070;7.874;2024-02-15T08:19:02;6.55;;;3.08;;
73909;SDS011;62245;48.070;7.874;2024-02-15T08:21:30;10.00;;;5.90;;
73909;SDS011;62245;48.070;7.874;2024-02-15T08:24:03;9.80;;;4.43;;
73909;SDS011;62245;48.070;7.874;2024-02-15T08:26:33;6.63;;;2.42;;
73909;SDS011;62245;48.070;7.874;2024-02-15T08:29:03;6.03;;;2.00;;
73909;SDS011;62245;48.070;7.874;2024-02-15T08:31:29;5.68;;;2.03;;
73909;SDS011;62245;48.070;7.874;2024-02-15T08:33:56;5.32;;;1.73;;
73909;SDS011;62245;48.070;7.874;2024-02-15T08:36:21;4.82;;;1.63;;
73909;SDS011;62245;48.070;7.874;2024-02-15T08:38:46;4.43;;;1.60;;
73909;SDS011;62245;48.070;7.874;2024-02-15T08:41:12;6.25;;;1.90;;
73909;SDS011;62245;48.070;7.874;2024-02-15T08:43:38;6.35;;;2.35;;
73909;SDS011;62245;48.070;7.874;2024-02-15T08:46:06;6.05;;;3.25;;
73909;SDS011;62245;48.070;7.874;2024-02-15T08:48:32;5.93;;;2.88;;
73909;SDS011;62245;48.070;7.874;2024-02-15T08:50:58;7.13;;;2.55;;
73909;SDS011;62245;48.070;7.874;2024-02-15T08:53:23;7.05;;;2.67;;
73909;SDS011;62245;48.070;7.874;2024-02-15T08:55:49;7.57;;;2.85;;
73909;SDS011;62245;48.070;7.874;2024-02-15T08:58:15;5.30;;;2.40;;
73909;SDS011;62245;48.070;7.874;2024-02-15T09:00:40;7.63;;;2.65;;
73909;SDS011;62245;48.070;7.874;2024-02-15T09:03:09;5.47;;;2.00;;
73909;SDS011;62245;48.070;7.874;2024-02-15T09:05:35;5.85;;;2.08;;
73909;SDS011;62245;48.070;7.874;2024-02-15T09:08:00;6.27;;;1.97;;
73909;SDS011;62245;48.070;7.874;2024-02-15T09:10:25;5.37;;;1.60;;
73909;SDS011;62245;48.070;7.874;2024-02-15T09:12:52;7.60;;;2.22;;
73909;SDS011;62245;48.070;7.874;2024-02-15T09:15:17;5.18;;;1.80;;
73909;SDS011;62245;48.070;7.874;2024-02-15T09:17:43;6.03;;;1.77;;
73909;SDS011;62245;48.070;7.874;2024-02-15T09:20:14;4.32;;;1.48;;
73909;SDS011;62245;48.070;7.874;2024-02-15T09:22:47;4.78;;;1.80;;
73909;SDS011;62245;48.070;7.874;2024-02-15T09:25:14;3.97;;;1.70;;
73909;SDS011;62245;48.070;7.874;2024-02-15T09:27:40;4.40;;;1.52;;
73909;SDS011;62245;48.070;7.874;2024-02-15T09:30:06;5.97;;;1.98;;
73909;SDS011;62245;48.070;7.874;2024-02-15T09:32:34;4.72;;;1.63;;
73909;SDS011;62245;48.070;7.874;2024-02-15T09:35:03;4.93;;;1.48;;
73909;SDS011;62245;48.070;7.874;2024-02-15T09:37:32;6.50;;;1.92;;
73909;SDS011;62245;48.070;7.874;2024-02-15T09:39:58;5.03;;;1.60;;
73909;SDS011;62245;48.070;7.874;2024-02-15T09:42:28;7.55;;;2.20;;
73909;SDS011;62245;48.070;7.874;2024-02-15T09:44:54;5.57;;;2.45;;
73909;SDS011;62245;48.070;7.874;2024-02-15T09:47:19;7.03;;;2.00;;
73909;SDS011;62245;48.070;7.874;2024-02-15T09:49:45;5.38;;;1.83;;
73909;SDS011;62245;48.070;7.874;2024-02-15T09:52:10;5.50;;;1.80;;
73909;SDS011;62245;48.070;7.874;2024-02-15T09:54:42;4.45;;;1.55;;
73909;SDS011;62245;48.070;7.874;2024-02-15T09:57:09;5.78;;;2.00;;
73909;SDS011;62245;48.070;7.874;2024-02-15T09:59:38;6.90;;;2.00;;
73909;SDS011;62245;48.070;7.874;2024-02-15T10:02:05;6.95;;;2.25;;
73909;SDS011;62245;48.070;7.874;2024-02-15T10:04:35;6.82;;;2.22;;
73909;SDS011;62245;48.070;7.874;2024-02-15T10:07:02;7.53;;;2.28;;
73909;SDS011;62245;48.070;7.874;2024-02-15T10:09:27;5.72;;;2.55;;
73909;SDS011;62245;48.070;7.874;2024-02-15T10:11:57;5.97;;;2.03;;
73909;SDS011;62245;48.070;7.874;2024-02-15T10:14:24;9.50;;;2.40;;
73909;SDS011;62245;48.070;7.874;2024-02-15T10:16:53;7.57;;;2.75;;
73909;SDS011;62245;48.070;7.874;2024-02-15T10:19:19;6.55;;;2.13;;
73909;SDS011;62245;48.070;7.874;2024-02-15T10:21:50;6.50;;;2.05;;
73909;SDS011;62245;48.070;7.874;2024-02-15T10:24:18;5.65;;;2.45;;
73909;SDS011;62245;48.070;7.874;2024-02-15T10:26:44;5.88;;;2.38;;
73909;SDS011;62245;48.070;7.874;2024-02-15T10:29:13;5.07;;;2.13;;
73909;SDS011;62245;48.070;7.874;2024-02-15T10:31:52;6.07;;;2.33;;
73909;SDS011;62245;48.070;7.874;2024-02-15T10:34:19;7.40;;;3.03;;
73909;SDS011;62245;48.070;7.874;2024-02-15T10:36:45;7.03;;;2.80;;
73909;SDS011;62245;48.070;7.874;2024-02-15T10:39:11;7.23;;;2.97;;
73909;SDS011;62245;48.070;7.874;2024-02-15T10:41:49;7.88;;;2.92;;
73909;SDS011;62245;48.070;7.874;2024-02-15T10:44:19;6.85;;;2.90;;
73909;SDS011;62245;48.070;7.874;2024-02-15T10:46:46;6.18;;;2.72;;
73909;SDS011;62245;48.070;7.874;2024-02-15T10:49:19;6.95;;;2.38;;
73909;SDS011;62245;48.070;7.874;2024-02-15T10:51:50;7.00;;;3.03;;
73909;SDS011;62245;48.070;7.874;2024-02-15T10:57:19;7.78;;;2.72;;
73909;SDS011;62245;48.070;7.874;2024-02-15T10:59:56;5.88;;;2.40;;
73909;SDS011;62245;48.070;7.874;2024-02-15T11:04:53;8.05;;;3.20;;
73909;SDS011;62245;48.070;7.874;2024-02-15T11:07:22;6.60;;;2.58;;
73909;SDS011;62245;48.070;7.874;2024-02-15T11:09:49;6.22;;;2.22;;
73909;SDS011;62245;48.070;7.874;2024-02-15T11:12:16;6.38;;;2.55;;
73909;SDS011;62245;48.070;7.874;2024-02-15T11:14:44;6.03;;;2.13;;
73909;SDS011;62245;48.070;7.874;2024-02-15T11:17:09;6.82;;;2.67;;
73909;SDS011;62245;48.070;7.874;2024-02-15T11:22:21;7.05;;;2.58;;
73909;SDS011;62245;48.070;7.874;2024-02-15T11:27:13;5.30;;;2.10;;
73909;SDS011;62245;48.070;7.874;2024-02-15T11:30:00;5.13;;;2.10;;
73909;SDS011;62245;48.070;7.874;2024-02-15T11:32:35;6.85;;;2.28;;
73909;SDS011;62245;48.070;7.874;2024-02-15T11:35:18;6.47;;;2.30;;
73909;SDS011;62245;48.070;7.874;2024-02-15T11:40:14;6.10;;;2.05;;
73909;SDS011;62245;48.070;7.874;2024-02-15T11:42:50;5.18;;;2.30;;
73909;SDS011;62245;48.070;7.874;2024-02-15T11:47:43;7.55;;;2.70;;
73909;SDS011;62245;48.070;7.874;2024-02-15T11:50:16;11.25;;;4.30;;
73909;SDS011;62245;48.070;7.874;2024-02-15T11:52:43;9.75;;;4.57;;
73909;SDS011;62245;48.070;7.874;2024-02-15T11:55:09;12.43;;;6.03;;
73909;SDS011;62245;48.070;7.874;2024-02-15T11:57:41;8.30;;;4.22;;
73909;SDS011;62245;48.070;7.874;2024-02-15T12:00:46;5.55;;;2.20;;
73909;SDS011;62245;48.070;7.874;2024-02-15T12:03:23;7.03;;;2.63;;
73909;SDS011;62245;48.070;7.874;2024-02-15T12:06:07;6.43;;;2.55;;
73909;SDS011;62245;48.070;7.874;2024-02-15T12:08:52;8.90;;;2.22;;
73909;SDS011;62245;48.070;7.874;2024-02-15T12:11:37;4.93;;;2.00;;
73909;SDS011;62245;48.070;7.874;2024-02-15T12:14:22;4.88;;;2.15;;
73909;SDS011;62245;48.070;7.874;2024-02-15T12:19:51;5.45;;;2.28;;
73909;SDS011;62245;48.070;7.874;2024-02-15T12:22:21;5.85;;;2.67;;
73909;SDS011;62245;48.070;7.874;2024-02-15T12:24:54;6.15;;;2.20;;
73909;SDS011;62245;48.070;7.874;2024-02-15T12:27:21;8.27;;;2.90;;
73909;SDS011;62245;48.070;7.874;2024-02-15T12:29:53;7.57;;;3.13;;
73909;SDS011;62245;48.070;7.874;2024-02-15T12:32:23;7.38;;;2.38;;
73909;SDS011;62245;48.070;7.874;2024-02-15T12:34:52;6.50;;;1.95;;
73909;SDS011;62245;48.070;7.874;2024-02-15T12:37:22;5.93;;;2.15;;
73909;SDS011;62245;48.070;7.874;2024-02-15T12:39:48;6.25;;;1.88;;
73909;SDS011;62245;48.070;7.874;2024-02-15T12:42:14;7.80;;;3.05;;
73909;SDS011;62245;48.070;7.874;2024-02-15T12:44:44;5.28;;;1.73;;
73909;SDS011;62245;48.070;7.874;2024-02-15T12:47:18;6.25;;;1.88;;
73909;SDS011;62245;48.070;7.874;2024-02-15T12:49:44;4.97;;;2.10;;
73909;SDS011;62245;48.070;7.874;2024-02-15T12:55:07;4.85;;;1.90;;
73909;SDS011;62245;48.070;7.874;2024-02-15T12:57:44;7.68;;;2.22;;
73909;SDS011;62245;48.070;7.874;2024-02-15T13:00:15;6.20;;;2.42;;
73909;SDS011;62245;48.070;7.874;2024-02-15T13:02:46;5.65;;;2.35;;
73909;SDS011;62245;48.070;7.874;2024-02-15T13:05:14;6.32;;;2.40;;
73909;SDS011;62245;48.070;7.874;2024-02-15T13:07:47;7.03;;;2.20;;
73909;SDS011;62245;48.070;7.874;2024-02-15T13:10:15;6.03;;;2.25;;
73909;SDS011;62245;48.070;7.874;2024-02-15T13:12:41;6.30;;;2.20;;
73909;SDS011;62245;48.070;7.874;2024-02-15T13:15:09;6.40;;;2.53;;
73909;SDS011;62245;48.070;7.874;2024-02-15T13:17:39;7.25;;;2.03;;
73909;SDS011;62245;48.070;7.874;2024-02-15T13:20:05;6.93;;;2.40;;
73909;SDS011;62245;48.070;7.874;2024-02-15T13:22:37;6.18;;;2.13;;
73909;SDS011;62245;48.070;7.874;2024-02-15T13:25:04;7.15;;;2.50;;
73909;SDS011;62245;48.070;7.874;2024-02-15T13:27:33;6.05;;;2.35;;
73909;SDS011;62245;48.070;7.874;2024-02-15T13:29:59;6.85;;;2.75;;
73909;SDS011;62245;48.070;7.874;2024-02-15T13:32:24;7.78;;;3.05;;
73909;SDS011;62245;48.070;7.874;2024-02-15T13:34:50;7.10;;;2.40;;
73909;SDS011;62245;48.070;7.874;2024-02-15T13:37:17;7.10;;;2.22;;
73909;SDS011;62245;48.070;7.874;2024-02-15T13:39:45;6.47;;;2.53;;
73909;SDS011;62245;48.070;7.874;2024-02-15T13:42:11;6.35;;;2.92;;
73909;SDS011;62245;48.070;7.874;2024-02-15T13:44:37;7.40;;;2.45;;
73909;SDS011;62245;48.070;7.874;2024-02-15T13:47:02;8.93;;;3.08;;
73909;SDS011;62245;48.070;7.874;2024-02-15T13:49:27;8.02;;;3.17;;
73909;SDS011;62245;48.070;7.874;2024-02-15T13:51:55;10.00;;;2.67;;
73909;SDS011;62245;48.070;7.874;2024-02-15T13:54:20;6.97;;;2.37;;
73909;SDS011;62245;48.070;7.874;2024-02-15T13:56:47;7.45;;;2.58;;
73909;SDS011;62245;48.070;7.874;2024-02-15T13:59:12;5.40;;;2.40;;
73909;SDS011;62245;48.070;7.874;2024-02-15T14:01:38;7.28;;;2.92;;
73909;SDS011;62245;48.070;7.874;2024-02-15T14:04:10;7.60;;;3.03;;
73909;SDS011;62245;48.070;7.874;2024-02-15T14:06:35;8.75;;;3.50;;
73909;SDS011;62245;48.070;7.874;2024-02-15T14:09:02;9.30;;;3.80;;
73909;SDS011;62245;48.070;7.874;2024-02-15T14:11:28;9.27;;;3.80;;
73909;SDS011;62245;48.070;7.874;2024-02-15T14:13:53;9.10;;;3.53;;
73909;SDS011;62245;48.070;7.874;2024-02-15T14:16:23;7.97;;;3.22;;
73909;SDS011;62245;48.070;7.874;2024-02-15T14:18:48;8.73;;;2.95;;
73909;SDS011;62245;48.070;7.874;2024-02-15T14:21:15;7.00;;;3.38;;
73909;SDS011;62245;48.070;7.874;2024-02-15T14:23:41;7.85;;;2.95;;
73909;SDS011;62245;48.070;7.874;2024-02-15T14:26:07;7.70;;;3.20;;
73909;SDS011;62245;48.070;7.874;2024-02-15T14:28:32;9.57;;;3.22;;
73909;SDS011;62245;48.070;7.874;2024-02-15T14:30:57;7.25;;;3.05;;
73909;SDS011;62245;48.070;7.874;2024-02-15T14:33:41;9.80;;;3.70;;
73909;SDS011;62245;48.070;7.874;2024-02-15T14:36:07;8.95;;;2.95;;
73909;SDS011;62245;48.070;7.874;2024-02-15T14:38:33;9.13;;;3.70;;
73909;SDS011;62245;48.070;7.874;2024-02-15T14:40:59;8.93;;;3.60;;
73909;SDS011;62245;48.070;7.874;2024-02-15T14:43:26;6.80;;;3.38;;
73909;SDS011;62245;48.070;7.874;2024-02-15T14:45:51;7.50;;;3.35;;
73909;SDS011;62245;48.070;7.874;2024-02-15T14:48:18;10.18;;;2.97;;
73909;SDS011;62245;48.070;7.874;2024-02-15T14:50:45;8.77;;;2.35;;
73909;SDS011;62245;48.070;7.874;2024-02-15T14:53:11;7.20;;;3.25;;
73909;SDS011;62245;48.070;7.874;2024-02-15T14:55:38;8.32;;;3.40;;
73909;SDS011;62245;48.070;7.874;2024-02-15T14:58:14;5.78;;;2.97;;
73909;SDS011;62245;48.070;7.874;2024-02-15T15:00:41;7.05;;;2.13;;
73909;SDS011;62245;48.070;7.874;2024-02-15T15:03:08;5.47;;;2.33;;
73909;SDS011;62245;48.070;7.874;2024-02-15T15:05:34;5.75;;;2.15;;
73909;SDS011;62245;48.070;7.874;2024-02-15T15:08:18;5.47;;;2.22;;
73909;SDS011;62245;48.070;7.874;2024-02-15T15:11:02;7.78;;;2.92;;
73909;SDS011;62245;48.070;7.874;2024-02-15T15:13:46;7.13;;;3.03;;
73909;SDS011;62245;48.070;7.874;2024-02-15T15:16:11;6.60;;;2.73;;
73909;SDS011;62245;48.070;7.874;2024-02-15T15:18:40;8.02;;;2.70;;
73909;SDS011;62245;48.070;7.874;2024-02-15T15:21:05;8.18;;;2.90;;
73909;SDS011;62245;48.070;7.874;2024-02-15T15:23:31;8.43;;;3.10;;
73909;SDS011;62245;48.070;7.874;2024-02-15T15:25:56;8.37;;;2.83;;
73909;SDS011;62245;48.070;7.874;2024-02-15T15:28:24;6.53;;;2.78;;
73909;SDS011;62245;48.070;7.874;2024-02-15T15:30:49;9.73;;;3.05;;
73909;SDS011;62245;48.070;7.874;2024-02-15T15:33:15;8.57;;;3.10;;
73909;SDS011;62245;48.070;7.874;2024-02-15T15:35:41;6.70;;;3.17;;
73909;SDS011;62245;48.070;7.874;2024-02-15T15:38:07;11.43;;;4.45;;
73909;SDS011;62245;48.070;7.874;2024-02-15T15:40:32;8.73;;;4.15;;
73909;SDS011;62245;48.070;7.874;2024-02-15T15:42:58;9.50;;;4.43;;
73909;SDS011;62245;48.070;7.874;2024-02-15T15:45:23;8.23;;;3.63;;
73909;SDS011;62245;48.070;7.874;2024-02-15T15:47:50;8.65;;;2.90;;
73909;SDS011;62245;48.070;7.874;2024-02-15T15:50:15;9.75;;;2.92;;
73909;SDS011;62245;48.070;7.874;2024-02-15T15:52:41;8.25;;;3.13;;
73909;SDS011;62245;48.070;7.874;2024-02-15T15:55:08;6.47;;;2.63;;
73909;SDS011;62245;48.070;7.874;2024-02-15T15:57:37;7.25;;;3.15;;
73909;SDS011;62245;48.070;7.874;2024-02-15T16:00:04;8.32;;;3.20;;
73909;SDS011;62245;48.070;7.874;2024-02-15T16:02:31;9.07;;;3.72;;
73909;SDS011;62245;48.070;7.874;2024-02-15T16:04:57;7.82;;;2.92;;
73909;SDS011;62245;48.070;7.874;2024-02-15T16:07:23;8.88;;;3.55;;
73909;SDS011;62245;48.070;7.874;2024-02-15T16:09:48;14.32;;;7.50;;
73909;SDS011;62245;48.070;7.874;2024-02-15T16:12:34;14.23;;;6.47;;
73909;SDS011;62245;48.070;7.874;2024-02-15T16:15:17;11.63;;;5.05;;
73909;SDS011;62245;48.070;7.874;2024-02-15T16:17:43;12.05;;;6.25;;
73909;SDS011;62245;48.070;7.874;2024-02-15T16:20:10;12.93;;;7.35;;
73909;SDS011;62245;48.070;7.874;2024-02-15T16:22:38;10.15;;;5.70;;
73909;SDS011;62245;48.070;7.874;2024-02-15T16:25:05;13.07;;;9.40;;
73909;SDS011;62245;48.070;7.874;2024-02-15T16:27:32;13.45;;;9.07;;
73909;SDS011;62245;48.070;7.874;2024-02-15T16:30:12;10.57;;;6.13;;
73909;SDS011;62245;48.070;7.874;2024-02-15T16:32:40;8.93;;;4.05;;
73909;SDS011;62245;48.070;7.874;2024-02-15T16:35:06;14.05;;;9.35;;
73909;SDS011;62245;48.070;7.874;2024-02-15T16:37:39;11.07;;;5.57;;
73909;SDS011;62245;48.070;7.874;2024-02-15T16:40:06;20.45;;;15.07;;
73909;SDS011;62245;48.070;7.874;2024-02-15T16:42:49;19.60;;;14.68;;
73909;SDS011;62245;48.070;7.874;2024-02-15T16:45:49;16.15;;;9.90;;
73909;SDS011;62245;48.070;7.874;2024-02-15T16:48:50;18.08;;;8.25;;
73909;SDS011;62245;48.070;7.874;2024-02-15T16:51:25;14.60;;;7.35;;
73909;SDS011;62245;48.070;7.874;2024-02-15T16:54:15;15.10;;;7.43;;
73909;SDS011;62245;48.070;7.874;2024-02-15T16:56:40;18.95;;;9.10;;
73909;SDS011;62245;48.070;7.874;2024-02-15T16:59:07;19.63;;;9.57;;
73909;SDS011;62245;48.070;7.874;2024-02-15T17:01:36;19.73;;;9.32;;
73909;SDS011;62245;48.070;7.874;2024-02-15T17:04:02;16.83;;;9.18;;
73909;SDS011;62245;48.070;7.874;2024-02-15T17:06:31;18.42;;;9.32;;
73909;SDS011;62245;48.070;7.874;2024-02-15T17:08:56;24.65;;;12.68;;
73909;SDS011;62245;48.070;7.874;2024-02-15T17:11:22;32.03;;;16.73;;
73909;SDS011;62245;48.070;7.874;2024-02-15T17:13:48;35.90;;;20.00;;
73909;SDS011;62245;48.070;7.874;2024-02-15T17:16:21;34.03;;;18.33;;
73909;SDS011;62245;48.070;7.874;2024-02-15T17:18:54;23.17;;;12.30;;
73909;SDS011;62245;48.070;7.874;2024-02-15T17:21:19;18.73;;;9.93;;
73909;SDS011;62245;48.070;7.874;2024-02-15T17:23:47;20.87;;;10.50;;
73909;SDS011;62245;48.070;7.874;2024-02-15T17:26:15;24.58;;;12.65;;
73909;SDS011;62245;48.070;7.874;2024-02-15T17:28:41;20.73;;;11.20;;
73909;SDS011;62245;48.070;7.874;2024-02-15T17:31:13;21.93;;;9.53;;
73909;SDS011;62245;48.070;7.874;2024-02-15T17:33:42;21.38;;;11.05;;
73909;SDS011;62245;48.070;7.874;2024-02-15T17:36:09;17.15;;;8.55;;
73909;SDS011;62245;48.070;7.874;2024-02-15T17:38:36;16.15;;;7.97;;
73909;SDS011;62245;48.070;7.874;2024-02-15T17:52:39;11.43;;;5.88;;
73909;SDS011;62245;48.070;7.874;2024-02-15T17:55:07;11.20;;;5.63;;
73909;SDS011;62245;48.070;7.874;2024-02-15T17:57:35;13.98;;;5.68;;
73909;SDS011;62245;48.070;7.874;2024-02-15T18:00:07;19.10;;;7.90;;
73909;SDS011;62245;48.070;7.874;2024-02-15T18:02:40;12.75;;;5.47;;
73909;SDS011;62245;48.070;7.874;2024-02-15T18:09:03;11.85;;;4.90;;
73909;SDS011;62245;48.070;7.874;2024-02-15T18:11:56;10.95;;;5.57;;
73909;SDS011;62245;48.070;7.874;2024-02-15T18:15:08;14.57;;;6.28;;
73909;SDS011;62245;48.070;7.874;2024-02-15T18:18:23;11.57;;;5.70;;
73909;SDS011;62245;48.070;7.874;2024-02-15T18:21:05;11.43;;;6.22;;
73909;SDS011;62245;48.070;7.874;2024-02-15T18:27:25;12.85;;;6.15;;
73909;SDS011;62245;48.070;7.874;2024-02-15T18:36:39;13.10;;;7.15;;
73909;SDS011;62245;48.070;7.874;2024-02-15T18:39:26;15.70;;;7.50;;
73909;SDS011;62245;48.070;7.874;2024-02-15T18:45:30;18.42;;;9.57;;
73909;SDS011;62245;48.070;7.874;2024-02-15T18:48:21;15.88;;;9.48;;